Time,TemperatureF,DewpointF,PressureIn,WindDirection,WindDirectionDegrees,WindSpeedMPH,WindSpeedGustMPH,Humidity,HourlyPrecipIn,Conditions,Clouds,dailyrainin,SoftwareType,DateUTC
2013-03-07 00:00:00,69.4,62.3,29.82,NW,315,2.2,2.2,78,0.00,,---,0.00,VWS V14.01,2013-03-06 13:00:00,
2013-03-07 00:05:00,69.4,62.3,29.82,NW,315,0.0,0.0,78,0.00,,---,0.00,VWS V14.01,2013-03-06 13:05:00,
2013-03-07 00:10:00,69.3,62.1,29.82,NNE,22,2.9,2.9,78,0.00,,---,0.00,VWS V14.01,2013-03-06 13:10:00,
2013-03-07 00:15:00,69.3,62.1,29.82,South,180,0.0,0.0,78,0.00,,---,0.00,VWS V14.01,2013-03-06 13:15:00,
2013-03-07 00:20:00,69.1,61.9,29.82,ESE,112,0.0,0.0,78,0.00,,---,0.00,VWS V14.01,2013-03-06 13:20:00,
2013-03-07 00:25:00,68.9,62.1,29.82,East,90,0.0,0.0,79,0.00,,---,0.00,VWS V14.01,2013-03-06 13:25:00,
2013-03-07 00:30:00,68.9,62.1,29.82,East,90,0.0,0.0,79,0.00,,---,0.00,VWS V14.01,2013-03-06 13:30:00,
2013-03-07 00:35:00,68.7,62.0,29.82,ENE,68,0.0,0.0,79,0.00,,---,0.00,VWS V14.01,2013-03-06 13:35:00,
2013-03-07 00:40:00,68.5,61.8,29.82,NW,315,0.0,0.0,79,0.00,,---,0.00,VWS V14.01,2013-03-06 13:40:00,
2013-03-07 00:45:00,68.4,61.6,29.82,ENE,68,0.0,0.9,79,0.00,,---,0.00,VWS V14.01,2013-03-06 13:45:00,
2013-03-07 00:50:00,68.4,61.6,29.82,East,90,0.0,0.0,79,0.00,,---,0.00,VWS V14.01,2013-03-06 13:50:00,
2013-03-07 00:55:00,68.2,61.8,29.82,NE,45,2.0,2.0,80,0.00,,---,0.00,VWS V14.01,2013-03-06 13:55:00,
2013-03-07 01:00:00,68.2,61.8,29.82,North,0,2.0,2.0,80,0.00,,---,0.00,VWS V14.01,2013-03-06 14:00:00,
2013-03-07 01:05:00,68.0,61.6,29.82,East,90,0.0,0.9,80,0.00,,---,0.00,VWS V14.01,2013-03-06 14:05:00,
2013-03-07 01:10:00,67.8,61.8,29.82,East,90,0.0,0.0,81,0.00,,---,0.00,VWS V14.01,2013-03-06 14:10:00,
2013-03-07 01:15:00,67.8,61.8,29.82,East,90,0.0,2.0,81,0.00,,---,0.00,VWS V14.01,2013-03-06 14:15:00,
2013-03-07 01:20:00,67.8,61.8,29.82,ENE,68,0.9,0.9,81,0.00,,---,0.00,VWS V14.01,2013-03-06 14:20:00,
2013-03-07 01:25:00,67.8,61.8,29.82,NNW,338,0.0,0.9,81,0.00,,---,0.00,VWS V14.01,2013-03-06 14:25:00,
2013-03-07 01:30:00,67.6,61.6,29.82,NNW,338,2.0,2.0,81,0.00,,---,0.00,VWS V14.01,2013-03-06 14:30:00,
2013-03-07 01:35:00,67.6,61.6,29.82,NNE,22,0.0,0.0,81,0.00,,---,0.00,VWS V14.01,2013-03-06 14:35:00,
2013-03-07 01:40:00,67.6,61.6,29.82,East,90,0.9,0.9,81,0.00,,---,0.00,VWS V14.01,2013-03-06 14:40:00,
2013-03-07 01:45:00,67.5,61.4,29.82,East,90,0.0,0.0,81,0.00,,---,0.00,VWS V14.01,2013-03-06 14:45:00,
2013-03-07 01:50:00,67.5,61.4,29.82,NE,45,0.9,0.9,81,0.00,,---,0.00,VWS V14.01,2013-03-06 14:50:00,
2013-03-07 01:55:00,67.5,61.8,29.82,ESE,112,0.0,0.0,82,0.00,,---,0.00,VWS V14.01,2013-03-06 14:55:00,
2013-03-07 02:00:00,67.3,61.6,29.82,East,90,0.0,0.0,82,0.00,,---,0.00,VWS V14.01,2013-03-06 15:00:00,
2013-03-07 02:05:00,67.3,61.6,29.82,ESE,112,1.1,1.1,82,0.00,,---,0.00,VWS V14.01,2013-03-06 15:05:00,
2013-03-07 02:10:00,67.3,61.6,29.82,NNE,22,2.0,2.0,82,0.00,,---,0.00,VWS V14.01,2013-03-06 15:10:00,
2013-03-07 02:15:00,67.3,61.6,29.82,NNE,22,0.0,0.0,82,0.00,,---,0.00,VWS V14.01,2013-03-06 15:15:00,
2013-03-07 02:20:00,67.1,61.4,29.82,ENE,68,0.9,0.9,82,0.00,,---,0.00,VWS V14.01,2013-03-06 15:20:00,
2013-03-07 02:25:00,67.1,61.4,29.82,East,90,0.0,0.0,82,0.00,,---,0.00,VWS V14.01,2013-03-06 15:25:00,
2013-03-07 02:30:00,67.1,61.4,29.82,NNW,338,1.3,1.3,82,0.00,,---,0.00,VWS V14.01,2013-03-06 15:30:00,
2013-03-07 02:35:00,67.1,61.4,29.82,ENE,68,0.0,0.0,82,0.00,,---,0.00,VWS V14.01,2013-03-06 15:35:00,
2013-03-07 02:40:00,67.1,61.4,29.82,East,90,0.9,0.9,82,0.00,,---,0.00,VWS V14.01,2013-03-06 15:40:00,
2013-03-07 02:45:00,67.1,61.4,29.82,NE,45,0.0,0.0,82,0.00,,---,0.00,VWS V14.01,2013-03-06 15:45:00,
2013-03-07 02:50:00,66.9,61.6,29.82,NE,45,0.0,0.0,83,0.00,,---,0.00,VWS V14.01,2013-03-06 15:50:00,
2013-03-07 02:55:00,66.9,61.6,29.82,NE,45,0.0,0.0,83,0.00,,---,0.00,VWS V14.01,2013-03-06 15:55:00,
2013-03-07 03:00:00,66.9,61.6,29.82,ENE,68,0.0,0.0,83,0.00,,---,0.00,VWS V14.01,2013-03-06 16:00:00,
2013-03-07 03:05:00,66.7,61.4,29.82,ENE,68,0.0,0.0,83,0.00,,---,0.00,VWS V14.01,2013-03-06 16:05:00,
2013-03-07 03:10:00,66.7,61.4,29.82,ENE,68,0.0,0.0,83,0.00,,---,0.00,VWS V14.01,2013-03-06 16:10:00,
2013-03-07 03:15:00,66.6,61.2,29.82,ENE,68,0.0,0.0,83,0.00,,---,0.00,VWS V14.01,2013-03-06 16:15:00,
2013-03-07 03:20:00,66.6,61.2,29.82,ENE,68,0.0,0.0,83,0.00,,---,0.00,VWS V14.01,2013-03-06 16:20:00,
2013-03-07 03:25:00,66.6,61.2,29.82,ENE,68,0.0,0.0,83,0.00,,---,0.00,VWS V14.01,2013-03-06 16:25:00,
2013-03-07 03:30:00,66.4,61.1,29.82,ENE,68,0.0,0.0,83,0.00,,---,0.00,VWS V14.01,2013-03-06 16:30:00,
2013-03-07 03:35:00,66.4,61.1,29.82,ENE,68,0.0,0.0,83,0.00,,---,0.00,VWS V14.01,2013-03-06 16:35:00,
2013-03-07 03:40:00,66.2,61.2,29.82,ENE,68,0.0,0.0,84,0.00,,---,0.00,VWS V14.01,2013-03-06 16:40:00,
2013-03-07 03:45:00,66.2,61.2,29.79,ENE,68,0.0,0.0,84,0.00,,---,0.00,VWS V14.01,2013-03-06 16:45:00,
2013-03-07 03:50:00,66.2,61.2,29.79,East,90,0.0,0.0,84,0.00,,---,0.00,VWS V14.01,2013-03-06 16:50:00,
2013-03-07 03:55:00,66.2,61.2,29.79,NE,45,0.0,0.0,84,0.00,,---,0.00,VWS V14.01,2013-03-06 16:55:00,
2013-03-07 04:00:00,66.2,61.2,29.82,North,0,0.0,0.0,84,0.00,,---,0.00,VWS V14.01,2013-03-06 17:00:00,
2013-03-07 04:05:00,66.0,61.4,29.82,WNW,292,0.0,0.0,85,0.00,,---,0.00,VWS V14.01,2013-03-06 17:05:00,
2013-03-07 04:10:00,66.0,61.4,29.82,WNW,292,0.0,0.0,85,0.00,,---,0.00,VWS V14.01,2013-03-06 17:10:00,
2013-03-07 04:15:00,66.0,61.4,29.79,NW,315,0.0,0.0,85,0.00,,---,0.00,VWS V14.01,2013-03-06 17:15:00,
2013-03-07 04:20:00,66.0,61.4,29.79,NE,45,1.6,1.6,85,0.00,,---,0.00,VWS V14.01,2013-03-06 17:20:00,
2013-03-07 04:25:00,65.8,61.2,29.79,NE,45,0.0,0.0,85,0.00,,---,0.00,VWS V14.01,2013-03-06 17:25:00,
2013-03-07 04:30:00,65.8,61.2,29.82,ENE,68,0.0,0.0,85,0.00,,---,0.00,VWS V14.01,2013-03-06 17:30:00,
2013-03-07 04:35:00,65.8,61.2,29.82,ENE,68,0.0,0.0,85,0.00,,---,0.00,VWS V14.01,2013-03-06 17:35:00,
2013-03-07 04:40:00,65.7,61.4,29.82,NE,45,0.0,0.0,86,0.00,,---,0.00,VWS V14.01,2013-03-06 17:40:00,
2013-03-07 04:45:00,65.7,61.4,29.82,ENE,68,0.0,0.0,86,0.00,,---,0.00,VWS V14.01,2013-03-06 17:45:00,
2013-03-07 04:50:00,65.7,61.4,29.82,NE,45,0.0,0.0,86,0.00,,---,0.00,VWS V14.01,2013-03-06 17:50:00,
2013-03-07 04:55:00,65.7,61.4,29.82,NE,45,0.0,0.0,86,0.00,,---,0.00,VWS V14.01,2013-03-06 17:55:00,
2013-03-07 05:00:00,65.5,61.2,29.79,NE,45,0.0,0.0,86,0.00,,---,0.00,VWS V14.01,2013-03-06 18:00:00,
2013-03-07 05:05:00,65.5,61.2,29.79,NE,45,0.0,0.0,86,0.00,,---,0.00,VWS V14.01,2013-03-06 18:05:00,
2013-03-07 05:10:00,65.5,61.2,29.79,NE,45,0.0,0.0,86,0.00,,---,0.00,VWS V14.01,2013-03-06 18:10:00,
2013-03-07 05:15:00,65.5,61.2,29.82,NE,45,0.0,0.0,86,0.00,,---,0.00,VWS V14.01,2013-03-06 18:15:00,
2013-03-07 05:20:00,65.5,61.2,29.82,NE,45,0.0,0.0,86,0.00,,---,0.00,VWS V14.01,2013-03-06 18:20:00,
2013-03-07 05:25:00,65.5,61.2,29.82,NE,45,0.0,0.0,86,0.00,,---,0.00,VWS V14.01,2013-03-06 18:25:00,
2013-03-07 05:30:00,65.5,61.2,29.82,NE,45,0.0,0.0,86,0.00,,---,0.00,VWS V14.01,2013-03-06 18:30:00,
2013-03-07 05:35:00,65.3,61.3,29.82,NE,45,0.0,0.0,87,0.00,,---,0.00,VWS V14.01,2013-03-06 18:35:00,
2013-03-07 05:40:00,65.3,61.3,29.82,NE,45,0.0,0.0,87,0.00,,---,0.00,VWS V14.01,2013-03-06 18:40:00,
2013-03-07 05:45:00,65.3,61.3,29.82,NE,45,0.0,0.0,87,0.00,,---,0.00,VWS V14.01,2013-03-06 18:45:00,
2013-03-07 05:50:00,65.1,61.2,29.82,NE,45,0.0,0.0,87,0.00,,---,0.00,VWS V14.01,2013-03-06 18:50:00,
2013-03-07 05:55:00,65.1,61.2,29.82,NE,45,0.0,0.0,87,0.00,,---,0.00,VWS V14.01,2013-03-06 18:55:00,
2013-03-07 06:00:00,65.1,61.2,29.82,West,270,0.0,0.0,87,0.00,,---,0.00,VWS V14.01,2013-03-06 19:00:00,
2013-03-07 06:05:00,65.1,61.2,29.82,West,270,0.0,0.0,87,0.00,,---,0.00,VWS V14.01,2013-03-06 19:05:00,
2013-03-07 06:10:00,65.1,61.2,29.82,West,270,0.0,0.0,87,0.00,,---,0.00,VWS V14.01,2013-03-06 19:10:00,
2013-03-07 06:15:00,64.9,61.3,29.82,NW,315,0.0,0.0,88,0.00,,---,0.00,VWS V14.01,2013-03-06 19:15:00,
2013-03-07 06:20:00,64.9,61.3,29.82,NW,315,0.0,0.0,88,0.00,,---,0.00,VWS V14.01,2013-03-06 19:20:00,
2013-03-07 06:25:00,64.9,61.3,29.82,NW,315,0.0,0.0,88,0.00,,---,0.00,VWS V14.01,2013-03-06 19:25:00,
2013-03-07 06:30:00,64.9,61.3,29.82,NW,315,0.0,0.0,88,0.00,,---,0.00,VWS V14.01,2013-03-06 19:30:00,
2013-03-07 06:35:00,64.9,61.3,29.82,NW,315,0.0,0.0,88,0.00,,---,0.00,VWS V14.01,2013-03-06 19:35:00,
2013-03-07 06:40:00,64.8,61.1,29.82,NW,315,0.0,0.0,88,0.00,,---,0.00,VWS V14.01,2013-03-06 19:40:00,
2013-03-07 06:45:00,64.8,61.5,29.85,NW,315,0.0,0.0,89,0.00,,---,0.00,VWS V14.01,2013-03-06 19:45:00,
2013-03-07 06:50:00,64.8,61.5,29.85,NW,315,0.0,0.0,89,0.00,,---,0.00,VWS V14.01,2013-03-06 19:50:00,
2013-03-07 06:55:00,64.8,61.5,29.85,NE,45,0.0,0.0,89,0.00,,---,0.00,VWS V14.01,2013-03-06 19:55:00,
2013-03-07 07:00:00,64.9,61.6,29.85,NE,45,0.0,0.0,89,0.00,,---,0.00,VWS V14.01,2013-03-06 20:00:00,
2013-03-07 07:05:00,64.9,61.6,29.85,NE,45,0.0,0.0,89,0.00,,---,0.00,VWS V14.01,2013-03-06 20:05:00,
2013-03-07 07:10:00,64.9,61.6,29.85,NE,45,0.0,0.0,89,0.00,,---,0.00,VWS V14.01,2013-03-06 20:10:00,
2013-03-07 07:15:00,64.9,61.6,29.85,NE,45,0.0,0.0,89,0.00,,---,0.00,VWS V14.01,2013-03-06 20:15:00,
2013-03-07 07:20:00,64.9,61.6,29.85,NE,45,0.0,0.0,89,0.00,,---,0.00,VWS V14.01,2013-03-06 20:20:00,
2013-03-07 07:25:00,64.9,61.6,29.85,NE,45,0.0,0.0,89,0.00,,---,0.00,VWS V14.01,2013-03-06 20:25:00,
2013-03-07 07:30:00,64.9,61.6,29.85,NE,45,0.0,0.0,89,0.00,,---,0.00,VWS V14.01,2013-03-06 20:30:00,
2013-03-07 07:35:00,65.1,61.8,29.85,NE,45,0.0,0.0,89,0.00,,---,0.00,VWS V14.01,2013-03-06 20:35:00,
2013-03-07 07:40:00,65.1,61.8,29.85,NE,45,0.0,0.0,89,0.00,,---,0.00,VWS V14.01,2013-03-06 20:40:00,
2013-03-07 07:45:00,65.1,61.8,29.85,NE,45,0.0,0.0,89,0.00,,---,0.00,VWS V14.01,2013-03-06 20:45:00,
2013-03-07 07:50:00,65.1,61.8,29.85,NE,45,0.0,0.0,89,0.00,,---,0.00,VWS V14.01,2013-03-06 20:50:00,
2013-03-07 07:55:00,65.3,62.0,29.85,East,90,0.0,0.0,89,0.00,,---,0.00,VWS V14.01,2013-03-06 20:55:00,
2013-03-07 08:00:00,65.3,62.0,29.85,East,90,0.0,0.0,89,0.00,,---,0.00,VWS V14.01,2013-03-06 21:00:00,
2013-03-07 08:05:00,65.5,62.2,29.85,East,90,0.0,0.0,89,0.00,,---,0.00,VWS V14.01,2013-03-06 21:05:00,
2013-03-07 08:10:00,65.5,62.2,29.85,SSE,158,0.0,0.0,89,0.00,,---,0.00,VWS V14.01,2013-03-06 21:10:00,
2013-03-07 08:15:00,65.7,62.7,29.85,East,90,0.0,0.0,90,0.00,,---,0.00,VWS V14.01,2013-03-06 21:15:00,
2013-03-07 08:20:00,65.7,62.7,29.85,ESE,112,0.0,2.5,90,0.00,,---,0.00,VWS V14.01,2013-03-06 21:20:00,
2013-03-07 08:25:00,66.0,63.0,29.85,SE,135,0.0,0.0,90,0.00,,---,0.00,VWS V14.01,2013-03-06 21:25:00,
2013-03-07 08:30:00,66.0,63.0,29.85,North,0,2.5,2.5,90,0.00,,---,0.00,VWS V14.01,2013-03-06 21:30:00,
2013-03-07 08:35:00,66.2,63.2,29.85,North,0,2.5,3.6,90,0.00,,---,0.00,VWS V14.01,2013-03-06 21:35:00,
2013-03-07 08:40:00,66.6,63.2,29.85,ENE,68,1.3,1.3,89,0.00,,---,0.00,VWS V14.01,2013-03-06 21:40:00,
2013-03-07 08:45:00,66.6,63.2,29.85,North,0,0.0,1.1,89,0.00,,---,0.00,VWS V14.01,2013-03-06 21:45:00,
2013-03-07 08:50:00,66.7,63.4,29.85,WNW,292,3.1,3.1,89,0.00,,---,0.00,VWS V14.01,2013-03-06 21:50:00,
2013-03-07 08:55:00,67.1,63.4,29.85,WNW,292,0.9,0.9,88,0.00,,---,0.00,VWS V14.01,2013-03-06 21:55:00,
2013-03-07 09:00:00,67.3,63.6,29.85,ENE,68,0.9,2.9,88,0.00,,---,0.00,VWS V14.01,2013-03-06 22:00:00,
2013-03-07 09:05:00,67.5,63.8,29.85,North,0,2.9,3.8,88,0.00,,---,0.00,VWS V14.01,2013-03-06 22:05:00,
2013-03-07 09:10:00,67.8,63.8,29.85,NNW,338,2.5,2.5,87,0.00,,---,0.00,VWS V14.01,2013-03-06 22:10:00,
2013-03-07 09:15:00,68.0,63.7,29.85,NW,315,5.8,5.8,86,0.00,,---,0.00,VWS V14.01,2013-03-06 22:15:00,
2013-03-07 09:20:00,68.2,63.5,29.85,West,270,2.7,2.7,85,0.00,,---,0.00,VWS V14.01,2013-03-06 22:20:00,
2013-03-07 09:25:00,68.7,63.7,29.85,West,270,0.0,2.5,84,0.00,,---,0.00,VWS V14.01,2013-03-06 22:25:00,
2013-03-07 09:30:00,68.9,63.5,29.85,NNE,22,0.0,0.0,83,0.00,,---,0.00,VWS V14.01,2013-03-06 22:30:00,
2013-03-07 09:35:00,69.1,63.4,29.85,NNE,22,0.9,0.9,82,0.00,,---,0.00,VWS V14.01,2013-03-06 22:35:00,
2013-03-07 09:40:00,69.4,63.4,29.85,WNW,292,4.9,4.9,81,0.00,,---,0.00,VWS V14.01,2013-03-06 22:40:00,
2013-03-07 09:45:00,69.8,63.4,29.85,North,0,3.4,3.4,80,0.00,,---,0.00,VWS V14.01,2013-03-06 22:45:00,
2013-03-07 09:50:00,70.0,63.2,29.85,East,90,1.3,1.3,79,0.00,,---,0.00,VWS V14.01,2013-03-06 22:50:00,
2013-03-07 09:55:00,70.3,63.5,29.85,NNE,22,6.0,6.0,79,0.00,,---,0.00,VWS V14.01,2013-03-06 22:55:00,
2013-03-07 10:00:00,70.9,63.7,29.85,NNW,338,6.5,6.5,78,0.00,,---,0.00,VWS V14.01,2013-03-06 23:00:00,
2013-03-07 10:05:00,71.1,63.9,29.85,North,0,7.4,7.4,78,0.00,,---,0.00,VWS V14.01,2013-03-06 23:05:00,
2013-03-07 10:10:00,71.4,63.8,29.85,NW,315,2.9,2.9,77,0.00,,---,0.00,VWS V14.01,2013-03-06 23:10:00,
2013-03-07 10:15:00,71.8,64.2,29.85,North,0,4.3,4.3,77,0.00,,---,0.00,VWS V14.01,2013-03-06 23:15:00,
2013-03-07 10:20:00,72.3,64.0,29.85,NE,45,0.0,2.9,75,0.00,,---,0.00,VWS V14.01,2013-03-06 23:20:00,
2013-03-07 10:25:00,72.9,63.7,29.85,NW,315,6.5,6.5,73,0.00,,---,0.00,VWS V14.01,2013-03-06 23:25:00,
2013-03-07 10:30:00,73.4,64.2,29.85,North,0,3.8,3.8,73,0.00,,---,0.00,VWS V14.01,2013-03-06 23:30:00,
2013-03-07 10:35:00,73.6,64.0,29.85,SW,225,3.6,3.6,72,0.00,,---,0.00,VWS V14.01,2013-03-06 23:35:00,
2013-03-07 10:40:00,74.1,64.5,29.85,West,270,4.0,4.0,72,0.00,,---,0.00,VWS V14.01,2013-03-06 23:40:00,
2013-03-07 10:45:00,74.7,64.6,29.85,WNW,292,3.4,4.9,71,0.00,,---,0.00,VWS V14.01,2013-03-06 23:45:00,
2013-03-07 10:50:00,75.0,64.6,29.85,WSW,248,2.0,2.5,70,0.00,,---,0.00,VWS V14.01,2013-03-06 23:50:00,
2013-03-07 10:55:00,75.6,64.7,29.85,North,0,5.6,5.6,69,0.00,,---,0.00,VWS V14.01,2013-03-06 23:55:00,
2013-03-07 11:00:00,75.7,64.4,29.82,NE,45,2.5,2.5,68,0.00,,---,0.00,VWS V14.01,2013-03-07 00:00:00,
2013-03-07 11:05:00,76.3,64.5,29.82,NNW,338,1.3,1.3,67,0.00,,---,0.00,VWS V14.01,2013-03-07 00:05:00,
2013-03-07 11:10:00,76.8,65.0,29.82,NNW,338,2.2,2.2,67,0.00,,---,0.00,VWS V14.01,2013-03-07 00:10:00,
2013-03-07 11:15:00,77.4,65.1,29.82,North,0,9.8,9.8,66,0.00,,---,0.00,VWS V14.01,2013-03-07 00:15:00,
2013-03-07 11:20:00,78.1,65.4,29.82,North,0,2.7,3.8,65,0.00,,---,0.00,VWS V14.01,2013-03-07 00:20:00,
2013-03-07 11:25:00,77.5,64.4,29.82,East,90,2.5,2.5,64,0.00,,---,0.00,VWS V14.01,2013-03-07 00:25:00,
2013-03-07 11:30:00,77.5,64.4,29.82,North,0,3.4,3.4,64,0.00,,---,0.00,VWS V14.01,2013-03-07 00:30:00,
2013-03-07 11:35:00,78.4,64.8,29.82,NW,315,2.2,4.3,63,0.00,,---,0.00,VWS V14.01,2013-03-07 00:35:00,
2013-03-07 11:40:00,78.3,65.5,29.82,SE,135,1.6,1.6,65,0.00,,---,0.00,VWS V14.01,2013-03-07 00:40:00,
2013-03-07 11:45:00,78.6,65.4,29.82,NNW,338,4.3,4.3,64,0.00,,---,0.00,VWS V14.01,2013-03-07 00:45:00,
2013-03-07 11:50:00,79.2,65.5,29.82,North,0,3.8,3.8,63,0.00,,---,0.00,VWS V14.01,2013-03-07 00:50:00,
2013-03-07 11:55:00,79.5,64.9,29.82,ENE,68,2.7,2.7,61,0.00,,---,0.00,VWS V14.01,2013-03-07 00:55:00,
2013-03-07 12:00:00,79.7,65.5,29.79,NNW,338,2.0,2.7,62,0.00,,---,0.00,VWS V14.01,2013-03-07 01:00:00,
2013-03-07 12:05:00,79.7,66.0,29.79,SE,135,3.8,4.0,63,0.00,,---,0.00,VWS V14.01,2013-03-07 01:05:00,
2013-03-07 12:10:00,78.8,65.6,29.79,NE,45,2.9,2.9,64,0.00,,---,0.00,VWS V14.01,2013-03-07 01:10:00,
2013-03-07 12:15:00,79.5,65.8,29.79,East,90,1.6,2.0,63,0.00,,---,0.00,VWS V14.01,2013-03-07 01:15:00,
2013-03-07 12:20:00,78.4,65.3,29.79,East,90,0.9,0.9,64,0.00,,---,0.00,VWS V14.01,2013-03-07 01:20:00,
2013-03-07 12:25:00,78.1,64.5,29.79,NW,315,2.0,3.1,63,0.00,,---,0.00,VWS V14.01,2013-03-07 01:25:00,
2013-03-07 12:30:00,77.9,63.8,29.79,ESE,112,6.0,6.0,62,0.00,,---,0.00,VWS V14.01,2013-03-07 01:30:00,
2013-03-07 12:35:00,79.0,64.9,29.79,ESE,112,6.0,6.0,62,0.00,,---,0.00,VWS V14.01,2013-03-07 01:35:00,
2013-03-07 12:40:00,78.4,63.9,29.79,SE,135,0.0,0.0,61,0.00,,---,0.00,VWS V14.01,2013-03-07 01:40:00,
2013-03-07 12:45:00,78.6,64.5,29.79,ENE,68,1.1,2.2,62,0.00,,---,0.00,VWS V14.01,2013-03-07 01:45:00,
2013-03-07 12:50:00,79.2,65.0,29.79,South,180,1.6,5.8,62,0.00,,---,0.00,VWS V14.01,2013-03-07 01:50:00,
2013-03-07 12:55:00,79.9,64.8,29.79,South,180,1.6,1.6,60,0.00,,---,0.00,VWS V14.01,2013-03-07 01:55:00,
2013-03-07 13:00:00,79.7,65.1,29.76,North,0,2.0,2.0,61,0.00,,---,0.00,VWS V14.01,2013-03-07 02:00:00,
2013-03-07 13:05:00,80.2,65.6,29.76,North,0,3.6,3.6,61,0.00,,---,0.00,VWS V14.01,2013-03-07 02:05:00,
2013-03-07 13:10:00,81.3,65.1,29.76,North,0,1.1,1.1,58,0.00,,---,0.00,VWS V14.01,2013-03-07 02:10:00,
2013-03-07 13:15:00,81.5,66.8,29.76,SE,135,2.9,2.9,61,0.00,,---,0.00,VWS V14.01,2013-03-07 02:15:00,
2013-03-07 13:20:00,81.5,64.8,29.76,SE,135,2.9,2.9,57,0.00,,---,0.00,VWS V14.01,2013-03-07 02:20:00,
2013-03-07 13:25:00,81.3,63.6,29.76,SE,135,2.9,2.9,55,0.00,,---,0.00,VWS V14.01,2013-03-07 02:25:00,
2013-03-07 13:30:00,81.0,64.3,29.76,SE,135,2.9,2.9,57,0.00,,---,0.00,VWS V14.01,2013-03-07 02:30:00,
2013-03-07 13:35:00,81.3,65.1,29.76,SE,135,2.9,2.9,58,0.00,,---,0.00,VWS V14.01,2013-03-07 02:35:00,
2013-03-07 13:40:00,81.5,64.8,29.76,NNW,338,2.7,2.7,57,0.00,,---,0.00,VWS V14.01,2013-03-07 02:40:00,
2013-03-07 13:45:00,80.6,63.0,29.76,NNW,338,2.7,2.7,55,0.00,,---,0.00,VWS V14.01,2013-03-07 02:45:00,
2013-03-07 13:50:00,81.1,64.5,29.76,NNW,338,2.7,2.7,57,0.00,,---,0.00,VWS V14.01,2013-03-07 02:50:00,
2013-03-07 13:55:00,81.0,63.8,29.76,NNW,338,2.7,2.7,56,0.00,,---,0.00,VWS V14.01,2013-03-07 02:55:00,
2013-03-07 14:00:00,81.3,64.7,29.74,NNW,338,2.7,2.7,57,0.00,,---,0.00,VWS V14.01,2013-03-07 03:00:00,
2013-03-07 14:05:00,81.1,64.0,29.74,NNW,338,2.7,2.7,56,0.00,,---,0.00,VWS V14.01,2013-03-07 03:05:00,
2013-03-07 14:10:00,81.3,64.7,29.74,NNW,338,2.7,2.7,57,0.00,,---,0.00,VWS V14.01,2013-03-07 03:10:00,
2013-03-07 14:15:00,80.8,64.1,29.76,NNW,338,2.7,2.7,57,0.00,,---,0.00,VWS V14.01,2013-03-07 03:15:00,
2013-03-07 14:20:00,80.4,64.8,29.76,NNW,338,2.7,2.7,59,0.00,,---,0.00,VWS V14.01,2013-03-07 03:20:00,
2013-03-07 14:25:00,80.8,65.1,29.76,NNW,338,2.7,2.7,59,0.00,,---,0.00,VWS V14.01,2013-03-07 03:25:00,
2013-03-07 14:30:00,80.4,63.8,29.76,NNW,338,2.7,2.7,57,0.00,,---,0.00,VWS V14.01,2013-03-07 03:30:00,
2013-03-07 14:35:00,80.6,65.0,29.76,NW,315,4.5,4.5,59,0.00,,---,0.00,VWS V14.01,2013-03-07 03:35:00,
2013-03-07 14:40:00,80.2,64.1,29.76,NW,315,4.5,4.5,58,0.00,,---,0.00,VWS V14.01,2013-03-07 03:40:00,
2013-03-07 14:45:00,80.2,64.1,29.76,ESE,112,1.3,1.3,58,0.00,,---,0.00,VWS V14.01,2013-03-07 03:45:00,
2013-03-07 14:50:00,80.2,63.6,29.76,ESE,112,1.3,1.3,57,0.00,,---,0.00,VWS V14.01,2013-03-07 03:50:00,
2013-03-07 14:55:00,80.6,65.4,29.76,NNE,22,2.0,2.0,60,0.00,,---,0.00,VWS V14.01,2013-03-07 03:55:00,
2013-03-07 15:00:00,79.9,62.8,29.76,NNE,22,2.0,2.0,56,0.00,,---,0.00,VWS V14.01,2013-03-07 04:00:00,
2013-03-07 15:05:00,79.7,64.6,29.76,SSE,158,9.8,9.8,60,0.00,,---,0.00,VWS V14.01,2013-03-07 04:05:00,
2013-03-07 15:10:00,80.1,64.5,29.76,NW,315,4.3,4.3,59,0.00,,---,0.00,VWS V14.01,2013-03-07 04:10:00,
2013-03-07 15:15:00,80.6,65.4,29.76,NW,315,4.3,4.3,60,0.00,,---,0.00,VWS V14.01,2013-03-07 04:15:00,
2013-03-07 15:20:00,80.4,64.3,29.76,NW,315,1.6,1.6,58,0.00,,---,0.00,VWS V14.01,2013-03-07 04:20:00,
2013-03-07 15:25:00,81.0,64.8,29.76,NE,45,2.7,2.7,58,0.00,,---,0.00,VWS V14.01,2013-03-07 04:25:00,
2013-03-07 15:30:00,80.8,63.6,29.76,SE,135,2.7,2.9,56,0.00,,---,0.00,VWS V14.01,2013-03-07 04:30:00,
2013-03-07 15:35:00,80.2,62.1,29.76,ESE,112,3.8,3.8,54,0.00,,---,0.00,VWS V14.01,2013-03-07 04:35:00,
2013-03-07 15:40:00,80.1,61.9,29.76,SE,135,3.4,3.4,54,0.00,,---,0.00,VWS V14.01,2013-03-07 04:40:00,
2013-03-07 15:45:00,80.1,61.9,29.76,ESE,112,3.4,3.4,54,0.00,,---,0.00,VWS V14.01,2013-03-07 04:45:00,
2013-03-07 15:50:00,79.9,62.8,29.76,SE,135,2.0,2.0,56,0.00,,---,0.00,VWS V14.01,2013-03-07 04:50:00,
2013-03-07 15:55:00,80.1,63.0,29.76,East,90,2.0,2.0,56,0.00,,---,0.00,VWS V14.01,2013-03-07 04:55:00,
2013-03-07 16:00:00,79.7,61.1,29.76,SW,225,2.5,2.5,53,0.00,,---,0.00,VWS V14.01,2013-03-07 05:00:00,
2013-03-07 16:05:00,79.9,61.8,29.76,ENE,68,3.4,3.4,54,0.00,,---,0.00,VWS V14.01,2013-03-07 05:05:00,
2013-03-07 16:10:00,79.3,60.7,29.76,NE,45,2.5,2.5,53,0.00,,---,0.00,VWS V14.01,2013-03-07 05:10:00,
2013-03-07 16:15:00,79.2,61.6,29.76,WSW,248,2.2,2.7,55,0.00,,---,0.00,VWS V14.01,2013-03-07 05:15:00,
2013-03-07 16:20:00,79.3,61.3,29.76,NE,45,1.1,1.1,54,0.00,,---,0.00,VWS V14.01,2013-03-07 05:20:00,
2013-03-07 16:25:00,79.3,61.8,29.76,SSE,158,2.5,2.5,55,0.00,,---,0.00,VWS V14.01,2013-03-07 05:25:00,
2013-03-07 16:30:00,79.0,61.5,29.76,SW,225,1.6,1.6,55,0.00,,---,0.00,VWS V14.01,2013-03-07 05:30:00,
2013-03-07 16:35:00,78.6,61.1,29.76,NE,45,2.0,2.0,55,0.00,,---,0.00,VWS V14.01,2013-03-07 05:35:00,
2013-03-07 16:40:00,78.4,60.4,29.76,SE,135,1.1,2.9,54,0.00,,---,0.00,VWS V14.01,2013-03-07 05:40:00,
2013-03-07 16:45:00,78.3,62.3,29.76,NNE,22,3.1,3.1,58,0.00,,---,0.00,VWS V14.01,2013-03-07 05:45:00,
2013-03-07 16:50:00,78.3,61.8,29.76,NE,45,9.8,9.8,57,0.00,,---,0.00,VWS V14.01,2013-03-07 05:50:00,
2013-03-07 16:55:00,78.3,60.8,29.76,WSW,248,1.3,2.9,55,0.00,,---,0.00,VWS V14.01,2013-03-07 05:55:00,
2013-03-07 17:00:00,78.1,61.1,29.76,East,90,2.2,2.2,56,0.00,,---,0.00,VWS V14.01,2013-03-07 06:00:00,
2013-03-07 17:05:00,77.7,60.3,29.76,ESE,112,2.5,2.5,55,0.00,,---,0.00,VWS V14.01,2013-03-07 06:05:00,
2013-03-07 17:10:00,77.7,61.3,29.76,SSE,158,4.3,4.3,57,0.00,,---,0.00,VWS V14.01,2013-03-07 06:10:00,
2013-03-07 17:15:00,77.9,61.0,29.76,NE,45,4.0,4.0,56,0.00,,---,0.00,VWS V14.01,2013-03-07 06:15:00,
2013-03-07 17:20:00,77.7,61.3,29.76,East,90,4.9,4.9,57,0.00,,---,0.00,VWS V14.01,2013-03-07 06:20:00,
2013-03-07 17:25:00,77.5,61.6,29.76,SE,135,0.0,0.0,58,0.00,,---,0.00,VWS V14.01,2013-03-07 06:25:00,
2013-03-07 17:30:00,77.4,60.5,29.76,NE,45,2.7,2.7,56,0.00,,---,0.00,VWS V14.01,2013-03-07 06:30:00,
2013-03-07 17:35:00,77.2,60.8,29.76,WNW,292,0.9,0.9,57,0.00,,---,0.00,VWS V14.01,2013-03-07 06:35:00,
2013-03-07 17:40:00,77.0,61.1,29.76,ESE,112,2.5,2.5,58,0.00,,---,0.00,VWS V14.01,2013-03-07 06:40:00,
2013-03-07 17:45:00,77.0,60.6,29.76,ESE,112,0.9,4.0,57,0.00,,---,0.00,VWS V14.01,2013-03-07 06:45:00,
2013-03-07 17:50:00,76.6,60.8,29.76,NE,45,1.3,1.3,58,0.00,,---,0.00,VWS V14.01,2013-03-07 06:50:00,
2013-03-07 17:55:00,76.5,61.1,29.76,East,90,2.7,2.7,59,0.00,,---,0.00,VWS V14.01,2013-03-07 06:55:00,
2013-03-07 18:00:00,76.3,60.9,29.79,East,90,2.9,2.9,59,0.00,,---,0.00,VWS V14.01,2013-03-07 07:00:00,
2013-03-07 18:05:00,76.1,61.2,29.79,East,90,0.0,0.0,60,0.00,,---,0.00,VWS V14.01,2013-03-07 07:05:00,
2013-03-07 18:10:00,75.9,61.5,29.79,NW,315,0.0,0.0,61,0.00,,---,0.00,VWS V14.01,2013-03-07 07:10:00,
2013-03-07 18:15:00,75.7,61.3,29.79,ENE,68,0.0,2.7,61,0.00,,---,0.00,VWS V14.01,2013-03-07 07:15:00,
2013-03-07 18:20:00,75.4,61.0,29.79,SSE,158,1.3,1.3,61,0.00,,---,0.00,VWS V14.01,2013-03-07 07:20:00,
2013-03-07 18:25:00,75.2,60.8,29.79,ESE,112,2.5,2.5,61,0.00,,---,0.00,VWS V14.01,2013-03-07 07:25:00,
2013-03-07 18:30:00,75.0,61.1,29.79,ENE,68,2.0,2.0,62,0.00,,---,0.00,VWS V14.01,2013-03-07 07:30:00,
2013-03-07 18:35:00,74.7,61.2,29.79,NNW,338,1.6,1.6,63,0.00,,---,0.00,VWS V14.01,2013-03-07 07:35:00,
2013-03-07 18:40:00,74.7,61.2,29.79,North,0,1.6,1.6,63,0.00,,---,0.00,VWS V14.01,2013-03-07 07:40:00,
2013-03-07 18:45:00,74.3,60.9,29.79,NNE,22,2.7,2.7,63,0.00,,---,0.00,VWS V14.01,2013-03-07 07:45:00,
2013-03-07 18:50:00,74.1,60.7,29.79,North,0,1.6,1.6,63,0.00,,---,0.00,VWS V14.01,2013-03-07 07:50:00,
2013-03-07 18:55:00,73.9,60.6,29.79,WNW,292,1.3,1.3,63,0.00,,---,0.00,VWS V14.01,2013-03-07 07:55:00,
2013-03-07 19:00:00,73.8,60.4,29.79,ESE,112,2.5,3.4,63,0.00,,---,0.00,VWS V14.01,2013-03-07 08:00:00,
2013-03-07 19:05:00,73.8,60.8,29.79,North,0,2.2,2.2,64,0.00,,---,0.00,VWS V14.01,2013-03-07 08:05:00,
2013-03-07 19:10:00,73.6,60.7,29.79,SW,225,0.0,1.1,64,0.00,,---,0.00,VWS V14.01,2013-03-07 08:10:00,
2013-03-07 19:15:00,73.4,60.5,29.79,WNW,292,3.1,3.1,64,0.00,,---,0.00,VWS V14.01,2013-03-07 08:15:00,
2013-03-07 19:20:00,73.2,60.3,29.79,North,0,2.5,2.5,64,0.00,,---,0.00,VWS V14.01,2013-03-07 08:20:00,
2013-03-07 19:25:00,73.0,60.2,29.79,ESE,112,3.6,3.6,64,0.00,,---,0.00,VWS V14.01,2013-03-07 08:25:00,
2013-03-07 19:30:00,72.9,59.5,29.79,South,180,1.1,1.1,63,0.00,,---,0.00,VWS V14.01,2013-03-07 08:30:00,
2013-03-07 19:35:00,72.7,59.8,29.79,West,270,1.6,1.6,64,0.00,,---,0.00,VWS V14.01,2013-03-07 08:35:00,
2013-03-07 19:40:00,72.5,59.6,29.79,NW,315,1.6,1.6,64,0.00,,---,0.00,VWS V14.01,2013-03-07 08:40:00,
2013-03-07 19:45:00,72.5,59.6,29.79,South,180,1.1,1.1,64,0.00,,---,0.00,VWS V14.01,2013-03-07 08:45:00,
2013-03-07 19:50:00,72.3,59.5,29.79,West,270,5.4,5.4,64,0.00,,---,0.00,VWS V14.01,2013-03-07 08:50:00,
2013-03-07 19:55:00,72.1,59.7,29.79,WNW,292,2.2,2.7,65,0.00,,---,0.00,VWS V14.01,2013-03-07 08:55:00,
2013-03-07 20:00:00,72.1,59.7,29.82,ENE,68,3.4,3.4,65,0.00,,---,0.00,VWS V14.01,2013-03-07 09:00:00,
2013-03-07 20:05:00,72.0,59.6,29.82,SW,225,2.0,2.0,65,0.00,,---,0.00,VWS V14.01,2013-03-07 09:05:00,
2013-03-07 20:10:00,72.0,59.6,29.82,East,90,1.6,3.4,65,0.00,,---,0.00,VWS V14.01,2013-03-07 09:10:00,
2013-03-07 20:15:00,72.0,60.0,29.82,WNW,292,0.9,1.3,66,0.00,,---,0.00,VWS V14.01,2013-03-07 09:15:00,
2013-03-07 20:20:00,71.8,59.8,29.82,NE,45,1.3,4.3,66,0.00,,---,0.00,VWS V14.01,2013-03-07 09:20:00,
2013-03-07 20:25:00,71.8,59.8,29.82,NNW,338,0.9,0.9,66,0.00,,---,0.00,VWS V14.01,2013-03-07 09:25:00,
2013-03-07 20:30:00,71.6,59.7,29.82,East,90,3.6,3.6,66,0.00,,---,0.00,VWS V14.01,2013-03-07 09:30:00,
2013-03-07 20:35:00,71.6,59.7,29.82,NE,45,0.9,1.3,66,0.00,,---,0.00,VWS V14.01,2013-03-07 09:35:00,
2013-03-07 20:40:00,71.6,59.7,29.82,North,0,4.0,4.0,66,0.00,,---,0.00,VWS V14.01,2013-03-07 09:40:00,
2013-03-07 20:45:00,71.6,60.1,29.82,NW,315,3.8,3.8,67,0.00,,---,0.00,VWS V14.01,2013-03-07 09:45:00,
2013-03-07 20:50:00,71.6,60.1,29.82,NE,45,3.6,3.6,67,0.00,,---,0.00,VWS V14.01,2013-03-07 09:50:00,
2013-03-07 20:55:00,71.4,59.9,29.82,West,270,2.7,2.7,67,0.00,,---,0.00,VWS V14.01,2013-03-07 09:55:00,
2013-03-07 21:00:00,71.4,60.3,29.85,West,270,2.0,2.0,68,0.00,,---,0.00,VWS V14.01,2013-03-07 10:00:00,
2013-03-07 21:05:00,71.4,60.3,29.85,East,90,1.1,1.1,68,0.00,,---,0.00,VWS V14.01,2013-03-07 10:05:00,
2013-03-07 21:10:00,71.4,60.3,29.85,NNW,338,3.8,3.8,68,0.00,,---,0.00,VWS V14.01,2013-03-07 10:10:00,
2013-03-07 21:15:00,71.2,60.2,29.85,NE,45,1.1,1.3,68,0.00,,---,0.00,VWS V14.01,2013-03-07 10:15:00,
2013-03-07 21:20:00,71.2,60.6,29.85,NE,45,2.9,2.9,69,0.00,,---,0.00,VWS V14.01,2013-03-07 10:20:00,
2013-03-07 21:25:00,71.1,60.4,29.85,ENE,68,0.0,2.5,69,0.00,,---,0.00,VWS V14.01,2013-03-07 10:25:00,
2013-03-07 21:30:00,71.1,60.4,29.85,NW,315,1.3,1.6,69,0.00,,---,0.00,VWS V14.01,2013-03-07 10:30:00,
2013-03-07 21:35:00,71.1,60.4,29.85,NW,315,3.6,3.6,69,0.00,,---,0.00,VWS V14.01,2013-03-07 10:35:00,
2013-03-07 21:40:00,70.9,60.2,29.85,North,0,3.6,3.6,69,0.00,,---,0.00,VWS V14.01,2013-03-07 10:40:00,
2013-03-07 21:45:00,70.9,60.2,29.85,NNW,338,2.5,2.5,69,0.00,,---,0.00,VWS V14.01,2013-03-07 10:45:00,
2013-03-07 21:50:00,70.9,60.6,29.85,NNE,22,3.4,3.4,70,0.00,,---,0.00,VWS V14.01,2013-03-07 10:50:00,
2013-03-07 21:55:00,70.7,60.5,29.85,NE,45,2.9,2.9,70,0.00,,---,0.00,VWS V14.01,2013-03-07 10:55:00,
2013-03-07 22:00:00,70.7,60.5,29.85,South,180,1.6,2.7,70,0.00,,---,0.00,VWS V14.01,2013-03-07 11:00:00,
2013-03-07 22:05:00,70.5,60.3,29.85,NW,315,2.9,2.9,70,0.00,,---,0.00,VWS V14.01,2013-03-07 11:05:00,
2013-03-07 22:10:00,70.5,60.3,29.85,North,0,2.7,2.7,70,0.00,,---,0.00,VWS V14.01,2013-03-07 11:10:00,
2013-03-07 22:15:00,70.3,60.5,29.85,North,0,2.7,4.7,71,0.00,,---,0.00,VWS V14.01,2013-03-07 11:15:00,
2013-03-07 22:20:00,70.3,60.5,29.85,SE,135,0.9,2.2,71,0.00,,---,0.00,VWS V14.01,2013-03-07 11:20:00,
2013-03-07 22:25:00,70.3,60.5,29.85,NW,315,2.5,2.5,71,0.00,,---,0.00,VWS V14.01,2013-03-07 11:25:00,
2013-03-07 22:30:00,70.2,60.3,29.88,WNW,292,2.5,2.5,71,0.00,,---,0.00,VWS V14.01,2013-03-07 11:30:00,
2013-03-07 22:35:00,70.2,60.3,29.88,West,270,1.6,1.6,71,0.00,,---,0.00,VWS V14.01,2013-03-07 11:35:00,
2013-03-07 22:40:00,70.2,60.3,29.88,NW,315,2.7,2.7,71,0.00,,---,0.00,VWS V14.01,2013-03-07 11:40:00,
2013-03-07 22:45:00,70.0,60.2,29.85,SE,135,1.6,1.6,71,0.00,,---,0.00,VWS V14.01,2013-03-07 11:45:00,
2013-03-07 22:50:00,70.0,60.2,29.85,North,0,0.0,0.0,71,0.00,,---,0.00,VWS V14.01,2013-03-07 11:50:00,
2013-03-07 22:55:00,69.8,60.0,29.85,SW,225,0.9,0.9,71,0.00,,---,0.00,VWS V14.01,2013-03-07 11:55:00,
2013-03-07 23:00:00,69.8,60.4,29.85,SW,225,1.3,1.3,72,0.00,,---,0.00,VWS V14.01,2013-03-07 12:00:00,
2013-03-07 23:05:00,69.6,60.2,29.85,NNE,22,2.0,2.0,72,0.00,,---,0.00,VWS V14.01,2013-03-07 12:05:00,
2013-03-07 23:10:00,69.6,60.2,29.85,North,0,2.2,2.2,72,0.00,,---,0.00,VWS V14.01,2013-03-07 12:10:00,
2013-03-07 23:15:00,69.6,60.2,29.85,ESE,112,3.1,3.1,72,0.00,,---,0.00,VWS V14.01,2013-03-07 12:15:00,
2013-03-07 23:20:00,69.6,60.6,29.85,NW,315,1.6,1.6,73,0.00,,---,0.00,VWS V14.01,2013-03-07 12:20:00,
2013-03-07 23:25:00,69.4,60.4,29.85,North,0,0.0,2.0,73,0.00,,---,0.00,VWS V14.01,2013-03-07 12:25:00,
2013-03-07 23:30:00,69.4,60.4,29.85,NW,315,1.6,1.6,73,0.00,,---,0.00,VWS V14.01,2013-03-07 12:30:00,
2013-03-07 23:35:00,69.4,60.4,29.85,North,0,0.9,0.9,73,0.00,,---,0.00,VWS V14.01,2013-03-07 12:35:00,
2013-03-07 23:41:00,69.3,60.6,29.85,East,90,0.0,0.9,74,0.00,,---,0.00,VWS V14.01,2013-03-07 12:41:00,
2013-03-07 23:46:00,69.3,60.6,29.85,SSE,158,1.6,1.6,74,0.00,,---,0.00,VWS V14.01,2013-03-07 12:46:00,
2013-03-07 23:51:00,69.1,60.5,29.85,SSW,202,0.0,0.0,74,0.00,,---,0.00,VWS V14.01,2013-03-07 12:51:00,
2013-03-07 23:56:00,69.1,60.5,29.85,West,270,0.0,0.0,74,0.00,,---,0.00,VWS V14.01,2013-03-07 12:56:00,